sensor_id;sensor_type;location;lat;lon;timestamp;P1;P2;P0
61760;PMS5003;47664;51.660;-0.100;2023-02-04T00:01:38;15;12;
61760;PMS5003;47664;51.660;-0.100;2023-02-04T00:04:11;12;10;
61760;PMS5003;47664;51.660;-0.100;2023-02-04T00:06:43;9;9;
61760;PMS5003;47664;51.660;-0.100;2023-02-04T00:09:15;12;12;
61760;PMS5003;47664;51.660;-0.100;2023-02-04T00:11:47;12;12;
61760;PMS5003;47664;51.660;-0.100;2023-02-04T00:14:20;14;9;
61760;PMS5003;47664;51.660;-0.100;2023-02-04T00:16:52;18;17;
61760;PMS5003;47664;51.660;-0.100;2023-02-04T00:19:24;23;18;
61760;PMS5003;47664;51.660;-0.100;2023-02-04T00:21:56;15;15;
61760;PMS5003;47664;51.660;-0.100;2023-02-04T00:24:28;18;17;
61760;PMS5003;47664;51.660;-0.100;2023-02-04T00:27:00;24;18;
61760;PMS5003;47664;51.660;-0.100;2023-02-04T00:29:32;23;16;
61760;PMS5003;47664;51.660;-0.100;2023-02-04T00:32:05;19;12;
61760;PMS5003;47664;51.660;-0.100;2023-02-04T00:34:37;13;9;
61760;PMS5003;47664;51.660;-0.100;2023-02-04T00:37:09;16;12;
61760;PMS5003;47664;51.660;-0.100;2023-02-04T00:39:42;12;9;
61760;PMS5003;47664;51.660;-0.100;2023-02-04T00:42:14;9;9;
61760;PMS5003;47664;51.660;-0.100;2023-02-04T00:44:47;12;9;
61760;PMS5003;47664;51.660;-0.100;2023-02-04T00:47:19;9;9;
61760;PMS5003;47664;51.660;-0.100;2023-02-04T00:49:51;12;9;
61760;PMS5003;47664;51.660;-0.100;2023-02-04T00:52:23;11;10;
61760;PMS5003;47664;51.660;-0.100;2023-02-04T00:54:55;13;8;
61760;PMS5003;47664;51.660;-0.100;2023-02-04T00:57:28;12;9;
61760;PMS5003;47664;51.660;-0.100;2023-02-04T01:00:00;12;8;
61760;PMS5003;47664;51.660;-0.100;2023-02-04T01:02:33;13;13;
61760;PMS5003;47664;51.660;-0.100;2023-02-04T01:05:05;9;8;
61760;PMS5003;47664;51.660;-0.100;2023-02-04T01:07:37;15;8;
61760;PMS5003;47664;51.660;-0.100;2023-02-04T01:10:09;17;13;
61760;PMS5003;47664;51.660;-0.100;2023-02-04T01:12:42;14;11;
61760;PMS5003;47664;51.660;-0.100;2023-02-04T01:15:15;11;8;
61760;PMS5003;47664;51.660;-0.100;2023-02-04T01:17:46;14;13;
61760;PMS5003;47664;51.660;-0.100;2023-02-04T01:20:19;11;11;
61760;PMS5003;47664;51.660;-0.100;2023-02-04T01:22:50;16;16;
61760;PMS5003;47664;51.660;-0.100;2023-02-04T01:25:27;15;11;
61760;PMS5003;47664;51.660;-0.100;2023-02-04T01:27:55;15;15;
61760;PMS5003;47664;51.660;-0.100;2023-02-04T01:30:27;15;14;
61760;PMS5003;47664;51.660;-0.100;2023-02-04T01:33:00;16;13;
61760;PMS5003;47664;51.660;-0.100;2023-02-04T01:35:32;19;15;
61760;PMS5003;47664;51.660;-0.100;2023-02-04T01:38:04;10;10;
61760;PMS5003;47664;51.660;-0.100;2023-02-04T01:40:36;13;10;
61760;PMS5003;47664;51.660;-0.100;2023-02-04T01:43:09;17;12;
61760;PMS5003;47664;51.660;-0.100;2023-02-04T01:45:41;21;16;
61760;PMS5003;47664;51.660;-0.100;2023-02-04T01:48:14;21;14;
61760;PMS5003;47664;51.660;-0.100;2023-02-04T01:50:47;15;13;
61760;PMS5003;47664;51.660;-0.100;2023-02-04T01:53:23;14;14;
61760;PMS5003;47664;51.660;-0.100;2023-02-04T01:55:57;12;9;
61760;PMS5003;47664;51.660;-0.100;2023-02-04T01:58:37;15;12;
61760;PMS5003;47664;51.660;-0.100;2023-02-04T02:01:10;13;13;
61760;PMS5003;47664;51.660;-0.100;2023-02-04T02:03:59;17;14;
61760;PMS5003;47664;51.660;-0.100;2023-02-04T02:06:31;24;19;
61760;PMS5003;47664;51.660;-0.100;2023-02-04T02:09:05;19;12;
61760;PMS5003;47664;51.660;-0.100;2023-02-04T02:11:36;21;11;
61760;PMS5003;47664;51.660;-0.100;2023-02-04T02:14:09;16;13;
61760;PMS5003;47664;51.660;-0.100;2023-02-04T02:16:41;18;16;
61760;PMS5003;47664;51.660;-0.100;2023-02-04T02:19:15;16;11;
61760;PMS5003;47664;51.660;-0.100;2023-02-04T02:21:51;16;13;
61760;PMS5003;47664;51.660;-0.100;2023-02-04T02:24:26;20;16;
61760;PMS5003;47664;51.660;-0.100;2023-02-04T02:27:01;15;11;
61760;PMS5003;47664;51.660;-0.100;2023-02-04T02:29:35;13;11;
61760;PMS5003;47664;51.660;-0.100;2023-02-04T02:32:08;18;12;
61760;PMS5003;47664;51.660;-0.100;2023-02-04T02:34:41;18;14;
61760;PMS5003;47664;51.660;-0.100;2023-02-04T02:37:13;16;14;
61760;PMS5003;47664;51.660;-0.100;2023-02-04T02:39:46;13;11;
61760;PMS5003;47664;51.660;-0.100;2023-02-04T02:42:18;12;11;
61760;PMS5003;47664;51.660;-0.100;2023-02-04T02:44:51;16;12;
61760;PMS5003;47664;51.660;-0.100;2023-02-04T02:47:24;13;12;
61760;PMS5003;47664;51.660;-0.100;2023-02-04T02:49:56;13;9;
61760;PMS5003;47664;51.660;-0.100;2023-02-04T02:52:29;9;7;
61760;PMS5003;47664;51.660;-0.100;2023-02-04T02:55:01;18;13;
61760;PMS5003;47664;51.660;-0.100;2023-02-04T02:57:38;12;8;
61760;PMS5003;47664;51.660;-0.100;2023-02-04T03:00:13;13;11;
61760;PMS5003;47664;51.660;-0.100;2023-02-04T03:02:49;10;8;
61760;PMS5003;47664;51.660;-0.100;2023-02-04T03:05:20;8;7;
61760;PMS5003;47664;51.660;-0.100;2023-02-04T03:07:55;10;10;
61760;PMS5003;47664;51.660;-0.100;2023-02-04T03:10:28;9;6;
61760;PMS5003;47664;51.660;-0.100;2023-02-04T03:13:01;12;9;
61760;PMS5003;47664;51.660;-0.100;2023-02-04T03:15:34;8;5;
61760;PMS5003;47664;51.660;-0.100;2023-02-04T03:18:07;11;8;
61760;PMS5003;47664;51.660;-0.100;2023-02-04T03:20:41;8;7;
61760;PMS5003;47664;51.660;-0.100;2023-02-04T03:23:14;9;8;
61760;PMS5003;47664;51.660;-0.100;2023-02-04T03:25:46;9;8;
61760;PMS5003;47664;51.660;-0.100;2023-02-04T03:28:19;9;6;
61760;PMS5003;47664;51.660;-0.100;2023-02-04T03:30:51;9;9;
61760;PMS5003;47664;51.660;-0.100;2023-02-04T03:33:24;10;6;
61760;PMS5003;47664;51.660;-0.100;2023-02-04T03:35:57;8;7;
61760;PMS5003;47664;51.660;-0.100;2023-02-04T03:38:29;11;11;
61760;PMS5003;47664;51.660;-0.100;2023-02-04T03:41:02;6;6;
61760;PMS5003;47664;51.660;-0.100;2023-02-04T03:43:34;6;6;
61760;PMS5003;47664;51.660;-0.100;2023-02-04T03:46:06;7;7;
61760;PMS5003;47664;51.660;-0.100;2023-02-04T03:48:38;8;6;
61760;PMS5003;47664;51.660;-0.100;2023-02-04T03:51:11;3;3;
61760;PMS5003;47664;51.660;-0.100;2023-02-04T03:53:43;8;6;
61760;PMS5003;47664;51.660;-0.100;2023-02-04T03:56:15;6;6;
61760;PMS5003;47664;51.660;-0.100;2023-02-04T03:58:47;8;7;
61760;PMS5003;47664;51.660;-0.100;2023-02-04T04:01:20;8;7;
61760;PMS5003;47664;51.660;-0.100;2023-02-04T04:03:52;8;8;
61760;PMS5003;47664;51.660;-0.100;2023-02-04T04:06:24;9;7;
61760;PMS5003;47664;51.660;-0.100;2023-02-04T04:08:56;8;5;
61760;PMS5003;47664;51.660;-0.100;2023-02-04T04:11:29;8;6;
61760;PMS5003;47664;51.660;-0.100;2023-02-04T04:14:01;15;11;
61760;PMS5003;47664;51.660;-0.100;2023-02-04T04:16:33;16;9;
61760;PMS5003;47664;51.660;-0.100;2023-02-04T04:19:06;13;7;
61760;PMS5003;47664;51.660;-0.100;2023-02-04T04:21:38;7;6;
61760;PMS5003;47664;51.660;-0.100;2023-02-04T04:24:10;12;9;
61760;PMS5003;47664;51.660;-0.100;2023-02-04T04:26:42;12;7;
61760;PMS5003;47664;51.660;-0.100;2023-02-04T04:29:15;12;12;
61760;PMS5003;47664;51.660;-0.100;2023-02-04T04:31:46;12;12;
61760;PMS5003;47664;51.660;-0.100;2023-02-04T04:34:19;12;10;
61760;PMS5003;47664;51.660;-0.100;2023-02-04T04:36:51;14;10;
61760;PMS5003;47664;51.660;-0.100;2023-02-04T04:39:24;12;10;
61760;PMS5003;47664;51.660;-0.100;2023-02-04T04:41:55;17;16;
61760;PMS5003;47664;51.660;-0.100;2023-02-04T04:44:27;17;15;
61760;PMS5003;47664;51.660;-0.100;2023-02-04T04:46:59;11;10;
61760;PMS5003;47664;51.660;-0.100;2023-02-04T04:49:31;17;10;
61760;PMS5003;47664;51.660;-0.100;2023-02-04T04:52:04;14;13;
61760;PMS5003;47664;51.660;-0.100;2023-02-04T04:54:36;14;12;
61760;PMS5003;47664;51.660;-0.100;2023-02-04T04:57:08;16;14;
61760;PMS5003;47664;51.660;-0.100;2023-02-04T04:59:40;15;12;
61760;PMS5003;47664;51.660;-0.100;2023-02-04T05:02:12;21;15;
61760;PMS5003;47664;51.660;-0.100;2023-02-04T05:04:45;19;16;
61760;PMS5003;47664;51.660;-0.100;2023-02-04T05:07:17;12;12;
61760;PMS5003;47664;51.660;-0.100;2023-02-04T05:09:49;15;13;
61760;PMS5003;47664;51.660;-0.100;2023-02-04T05:12:21;19;13;
61760;PMS5003;47664;51.660;-0.100;2023-02-04T05:14:53;17;16;
61760;PMS5003;47664;51.660;-0.100;2023-02-04T05:17:25;15;14;
61760;PMS5003;47664;51.660;-0.100;2023-02-04T05:19:57;20;17;
61760;PMS5003;47664;51.660;-0.100;2023-02-04T05:22:30;15;12;
61760;PMS5003;47664;51.660;-0.100;2023-02-04T05:25:02;17;15;
61760;PMS5003;47664;51.660;-0.100;2023-02-04T05:27:34;16;13;
61760;PMS5003;47664;51.660;-0.100;2023-02-04T05:30:08;13;13;
61760;PMS5003;47664;51.660;-0.100;2023-02-04T05:32:41;17;15;
61760;PMS5003;47664;51.660;-0.100;2023-02-04T05:35:13;15;14;
61760;PMS5003;47664;51.660;-0.100;2023-02-04T05:37:45;15;12;
61760;PMS5003;47664;51.660;-0.100;2023-02-04T05:40:17;21;16;
61760;PMS5003;47664;51.660;-0.100;2023-02-04T05:42:50;16;12;
61760;PMS5003;47664;51.660;-0.100;2023-02-04T05:45:22;19;14;
61760;PMS5003;47664;51.660;-0.100;2023-02-04T05:47:54;20;17;
61760;PMS5003;47664;51.660;-0.100;2023-02-04T05:50:27;12;11;
61760;PMS5003;47664;51.660;-0.100;2023-02-04T05:52:59;15;13;
61760;PMS5003;47664;51.660;-0.100;2023-02-04T05:55:31;16;15;
61760;PMS5003;47664;51.660;-0.100;2023-02-04T05:58:02;17;12;
61760;PMS5003;47664;51.660;-0.100;2023-02-04T06:00:35;17;15;
61760;PMS5003;47664;51.660;-0.100;2023-02-04T06:03:07;18;15;
61760;PMS5003;47664;51.660;-0.100;2023-02-04T06:05:39;14;13;
61760;PMS5003;47664;51.660;-0.100;2023-02-04T06:08:12;16;13;
61760;PMS5003;47664;51.660;-0.100;2023-02-04T06:10:44;16;14;
61760;PMS5003;47664;51.660;-0.100;2023-02-04T06:13:16;14;13;
61760;PMS5003;47664;51.660;-0.100;2023-02-04T06:15:48;18;13;
61760;PMS5003;47664;51.660;-0.100;2023-02-04T06:18:20;19;16;
61760;PMS5003;47664;51.660;-0.100;2023-02-04T06:20:52;14;13;
61760;PMS5003;47664;51.660;-0.100;2023-02-04T06:23:25;16;11;
61760;PMS5003;47664;51.660;-0.100;2023-02-04T06:25:57;16;10;
61760;PMS5003;47664;51.660;-0.100;2023-02-04T06:28:29;11;11;
61760;PMS5003;47664;51.660;-0.100;2023-02-04T06:31:01;15;14;
61760;PMS5003;47664;51.660;-0.100;2023-02-04T06:33:33;18;15;
61760;PMS5003;47664;51.660;-0.100;2023-02-04T06:36:05;14;12;
61760;PMS5003;47664;51.660;-0.100;2023-02-04T06:38:38;16;12;
61760;PMS5003;47664;51.660;-0.100;2023-02-04T06:41:10;11;9;
61760;PMS5003;47664;51.660;-0.100;2023-02-04T06:43:42;15;13;
61760;PMS5003;47664;51.660;-0.100;2023-02-04T06:46:13;14;12;
61760;PMS5003;47664;51.660;-0.100;2023-02-04T06:48:46;13;12;
61760;PMS5003;47664;51.660;-0.100;2023-02-04T06:51:18;14;13;
61760;PMS5003;47664;51.660;-0.100;2023-02-04T06:53:51;18;13;
61760;PMS5003;47664;51.660;-0.100;2023-02-04T06:56:23;18;14;
61760;PMS5003;47664;51.660;-0.100;2023-02-04T06:58:55;14;12;
61760;PMS5003;47664;51.660;-0.100;2023-02-04T07:01:27;16;15;
61760;PMS5003;47664;51.660;-0.100;2023-02-04T07:03:58;16;12;
61760;PMS5003;47664;51.660;-0.100;2023-02-04T07:06:31;16;14;
61760;PMS5003;47664;51.660;-0.100;2023-02-04T07:09:03;14;13;
61760;PMS5003;47664;51.660;-0.100;2023-02-04T07:11:35;14;12;
61760;PMS5003;47664;51.660;-0.100;2023-02-04T07:14:07;14;12;
61760;PMS5003;47664;51.660;-0.100;2023-02-04T07:16:39;21;15;
61760;PMS5003;47664;51.660;-0.100;2023-02-04T07:19:11;16;13;
61760;PMS5003;47664;51.660;-0.100;2023-02-04T07:21:44;12;12;
61760;PMS5003;47664;51.660;-0.100;2023-02-04T07:24:16;16;15;
61760;PMS5003;47664;51.660;-0.100;2023-02-04T07:26:49;17;14;
61760;PMS5003;47664;51.660;-0.100;2023-02-04T07:29:21;11;10;
61760;PMS5003;47664;51.660;-0.100;2023-02-04T07:31:54;18;17;
61760;PMS5003;47664;51.660;-0.100;2023-02-04T07:34:26;15;15;
61760;PMS5003;47664;51.660;-0.100;2023-02-04T07:36:58;25;21;
61760;PMS5003;47664;51.660;-0.100;2023-02-04T07:39:30;17;13;
61760;PMS5003;47664;51.660;-0.100;2023-02-04T07:42:02;16;13;
61760;PMS5003;47664;51.660;-0.100;2023-02-04T07:44:34;13;11;
61760;PMS5003;47664;51.660;-0.100;2023-02-04T07:47:06;16;14;
61760;PMS5003;47664;51.660;-0.100;2023-02-04T07:49:38;16;9;
61760;PMS5003;47664;51.660;-0.100;2023-02-04T07:52:11;14;11;
61760;PMS5003;47664;51.660;-0.100;2023-02-04T07:54:43;10;10;
61760;PMS5003;47664;51.660;-0.100;2023-02-04T07:57:15;10;10;
61760;PMS5003;47664;51.660;-0.100;2023-02-04T07:59:47;11;11;
61760;PMS5003;47664;51.660;-0.100;2023-02-04T08:02:19;11;8;
61760;PMS5003;47664;51.660;-0.100;2023-02-04T08:04:52;12;9;
61760;PMS5003;47664;51.660;-0.100;2023-02-04T08:07:24;11;10;
61760;PMS5003;47664;51.660;-0.100;2023-02-04T08:09:56;13;11;
61760;PMS5003;47664;51.660;-0.100;2023-02-04T08:12:28;13;10;
61760;PMS5003;47664;51.660;-0.100;2023-02-04T08:15:00;10;10;
61760;PMS5003;47664;51.660;-0.100;2023-02-04T08:17:33;14;9;
61760;PMS5003;47664;51.660;-0.100;2023-02-04T08:20:05;12;10;
61760;PMS5003;47664;51.660;-0.100;2023-02-04T08:22:37;13;8;
61760;PMS5003;47664;51.660;-0.100;2023-02-04T08:25:10;13;10;
61760;PMS5003;47664;51.660;-0.100;2023-02-04T08:27:42;11;9;
61760;PMS5003;47664;51.660;-0.100;2023-02-04T08:30:14;8;6;
61760;PMS5003;47664;51.660;-0.100;2023-02-04T08:32:47;11;9;
61760;PMS5003;47664;51.660;-0.100;2023-02-04T08:35:19;6;6;
61760;PMS5003;47664;51.660;-0.100;2023-02-04T08:37:51;11;8;
61760;PMS5003;47664;51.660;-0.100;2023-02-04T08:40:24;9;6;
61760;PMS5003;47664;51.660;-0.100;2023-02-04T08:42:56;9;9;
61760;PMS5003;47664;51.660;-0.100;2023-02-04T08:45:28;11;7;
61760;PMS5003;47664;51.660;-0.100;2023-02-04T08:48:00;7;5;
61760;PMS5003;47664;51.660;-0.100;2023-02-04T08:50:32;9;8;
61760;PMS5003;47664;51.660;-0.100;2023-02-04T08:53:04;6;6;
61760;PMS5003;47664;51.660;-0.100;2023-02-04T08:55:37;5;5;
61760;PMS5003;47664;51.660;-0.100;2023-02-04T08:58:09;8;8;
61760;PMS5003;47664;51.660;-0.100;2023-02-04T09:00:41;8;4;
61760;PMS5003;47664;51.660;-0.100;2023-02-04T09:03:13;5;5;
61760;PMS5003;47664;51.660;-0.100;2023-02-04T09:05:46;6;4;
61760;PMS5003;47664;51.660;-0.100;2023-02-04T09:08:17;5;5;
61760;PMS5003;47664;51.660;-0.100;2023-02-04T09:10:50;6;5;
61760;PMS5003;47664;51.660;-0.100;2023-02-04T09:13:22;4;4;
61760;PMS5003;47664;51.660;-0.100;2023-02-04T09:15:54;4;4;
61760;PMS5003;47664;51.660;-0.100;2023-02-04T09:18:26;8;5;
61760;PMS5003;47664;51.660;-0.100;2023-02-04T09:20:59;5;5;
61760;PMS5003;47664;51.660;-0.100;2023-02-04T09:23:32;4;4;
61760;PMS5003;47664;51.660;-0.100;2023-02-04T09:26:09;5;5;
61760;PMS5003;47664;51.660;-0.100;2023-02-04T09:28:36;4;4;
61760;PMS5003;47664;51.660;-0.100;2023-02-04T09:31:09;5;5;
61760;PMS5003;47664;51.660;-0.100;2023-02-04T09:33:40;7;6;
61760;PMS5003;47664;51.660;-0.100;2023-02-04T09:36:13;9;8;
61760;PMS5003;47664;51.660;-0.100;2023-02-04T09:38:46;5;2;
61760;PMS5003;47664;51.660;-0.100;2023-02-04T09:41:17;4;3;
61760;PMS5003;47664;51.660;-0.100;2023-02-04T09:43:50;4;4;
61760;PMS5003;47664;51.660;-0.100;2023-02-04T09:46:22;11;8;
61760;PMS5003;47664;51.660;-0.100;2023-02-04T09:48:56;3;3;
61760;PMS5003;47664;51.660;-0.100;2023-02-04T09:51:29;7;7;
61760;PMS5003;47664;51.660;-0.100;2023-02-04T09:54:04;6;3;
61760;PMS5003;47664;51.660;-0.100;2023-02-04T09:56:39;6;6;
61760;PMS5003;47664;51.660;-0.100;2023-02-04T09:59:12;8;3;
61760;PMS5003;47664;51.660;-0.100;2023-02-04T10:01:46;3;3;
61760;PMS5003;47664;51.660;-0.100;2023-02-04T10:04:21;3;3;
61760;PMS5003;47664;51.660;-0.100;2023-02-04T10:06:54;5;4;
61760;PMS5003;47664;51.660;-0.100;2023-02-04T10:09:26;5;5;
61760;PMS5003;47664;51.660;-0.100;2023-02-04T10:11:59;3;3;
61760;PMS5003;47664;51.660;-0.100;2023-02-04T10:14:31;3;3;
61760;PMS5003;47664;51.660;-0.100;2023-02-04T10:17:04;3;3;
61760;PMS5003;47664;51.660;-0.100;2023-02-04T10:19:38;4;3;
61760;PMS5003;47664;51.660;-0.100;2023-02-04T10:22:14;6;4;
61760;PMS5003;47664;51.660;-0.100;2023-02-04T10:24:44;3;3;
61760;PMS5003;47664;51.660;-0.100;2023-02-04T10:27:16;3;3;
61760;PMS5003;47664;51.660;-0.100;2023-02-04T10:29:57;5;2;
61760;PMS5003;47664;51.660;-0.100;2023-02-04T10:32:26;5;4;
61760;PMS5003;47664;51.660;-0.100;2023-02-04T10:34:59;2;2;
61760;PMS5003;47664;51.660;-0.100;2023-02-04T10:37:32;2;2;
61760;PMS5003;47664;51.660;-0.100;2023-02-04T10:40:04;1;1;
61760;PMS5003;47664;51.660;-0.100;2023-02-04T10:42:54;0;0;
61760;PMS5003;47664;51.660;-0.100;2023-02-04T10:45:32;4;2;
61760;PMS5003;47664;51.660;-0.100;2023-02-04T10:48:05;1;1;
61760;PMS5003;47664;51.660;-0.100;2023-02-04T10:50:40;1;1;
61760;PMS5003;47664;51.660;-0.100;2023-02-04T10:53:14;3;0;
61760;PMS5003;47664;51.660;-0.100;2023-02-04T10:55:47;1;1;
61760;PMS5003;47664;51.660;-0.100;2023-02-04T10:58:22;0;0;
61760;PMS5003;47664;51.660;-0.100;2023-02-04T11:00:54;0;0;
61760;PMS5003;47664;51.660;-0.100;2023-02-04T11:03:27;2;1;
61760;PMS5003;47664;51.660;-0.100;2023-02-04T11:05:59;0;0;
61760;PMS5003;47664;51.660;-0.100;2023-02-04T11:08:36;2;1;
61760;PMS5003;47664;51.660;-0.100;2023-02-04T11:11:12;0;0;
61760;PMS5003;47664;51.660;-0.100;2023-02-04T11:13:43;2;2;
61760;PMS5003;47664;51.660;-0.100;2023-02-04T11:16:25;0;0;
61760;PMS5003;47664;51.660;-0.100;2023-02-04T11:19:00;0;0;
61760;PMS5003;47664;51.660;-0.100;2023-02-04T11:21:41;0;0;
61760;PMS5003;47664;51.660;-0.100;2023-02-04T11:24:25;0;0;
61760;PMS5003;47664;51.660;-0.100;2023-02-04T11:27:04;3;0;
61760;PMS5003;47664;51.660;-0.100;2023-02-04T11:29:34;2;0;
61760;PMS5003;47664;51.660;-0.100;2023-02-04T11:32:12;0;0;
61760;PMS5003;47664;51.660;-0.100;2023-02-04T11:34:54;1;0;
61760;PMS5003;47664;51.660;-0.100;2023-02-04T11:37:34;1;1;
61760;PMS5003;47664;51.660;-0.100;2023-02-04T11:40:21;0;0;
61760;PMS5003;47664;51.660;-0.100;2023-02-04T11:42:55;0;0;
61760;PMS5003;47664;51.660;-0.100;2023-02-04T11:45:25;0;0;
61760;PMS5003;47664;51.660;-0.100;2023-02-04T11:47:59;0;0;
61760;PMS5003;47664;51.660;-0.100;2023-02-04T11:50:38;0;0;
61760;PMS5003;47664;51.660;-0.100;2023-02-04T11:53:20;2;1;
61760;PMS5003;47664;51.660;-0.100;2023-02-04T11:55:55;2;0;
61760;PMS5003;47664;51.660;-0.100;2023-02-04T11:58:29;0;0;
61760;PMS5003;47664;51.660;-0.100;2023-02-04T12:01:04;2;1;
61760;PMS5003;47664;51.660;-0.100;2023-02-04T12:03:45;0;0;
61760;PMS5003;47664;51.660;-0.100;2023-02-04T12:06:19;3;1;
61760;PMS5003;47664;51.660;-0.100;2023-02-04T12:08:47;0;0;
61760;PMS5003;47664;51.660;-0.100;2023-02-04T12:11:30;1;1;
61760;PMS5003;47664;51.660;-0.100;2023-02-04T12:14:07;0;0;
61760;PMS5003;47664;51.660;-0.100;2023-02-04T12:16:43;2;2;
61760;PMS5003;47664;51.660;-0.100;2023-02-04T12:19:12;3;2;
61760;PMS5003;47664;51.660;-0.100;2023-02-04T12:21:44;0;0;
61760;PMS5003;47664;51.660;-0.100;2023-02-04T12:24:16;2;0;
61760;PMS5003;47664;51.660;-0.100;2023-02-04T12:26:48;6;3;
61760;PMS5003;47664;51.660;-0.100;2023-02-04T12:29:20;4;4;
61760;PMS5003;47664;51.660;-0.100;2023-02-04T12:31:52;2;2;
61760;PMS5003;47664;51.660;-0.100;2023-02-04T12:34:24;1;1;
61760;PMS5003;47664;51.660;-0.100;2023-02-04T12:36:57;2;1;
61760;PMS5003;47664;51.660;-0.100;2023-02-04T12:39:29;3;2;
61760;PMS5003;47664;51.660;-0.100;2023-02-04T12:42:01;2;2;
61760;PMS5003;47664;51.660;-0.100;2023-02-04T12:44:33;2;2;
61760;PMS5003;47664;51.660;-0.100;2023-02-04T12:47:05;7;6;
61760;PMS5003;47664;51.660;-0.100;2023-02-04T12:49:37;2;2;
61760;PMS5003;47664;51.660;-0.100;2023-02-04T12:52:09;3;3;
61760;PMS5003;47664;51.660;-0.100;2023-02-04T12:54:41;3;3;
61760;PMS5003;47664;51.660;-0.100;2023-02-04T12:57:13;6;3;
61760;PMS5003;47664;51.660;-0.100;2023-02-04T12:59:46;3;3;
61760;PMS5003;47664;51.660;-0.100;2023-02-04T13:02:19;6;4;
61760;PMS5003;47664;51.660;-0.100;2023-02-04T13:04:51;5;4;
61760;PMS5003;47664;51.660;-0.100;2023-02-04T13:07:23;4;3;
61760;PMS5003;47664;51.660;-0.100;2023-02-04T13:09:55;4;3;
61760;PMS5003;47664;51.660;-0.100;2023-02-04T13:12:28;6;3;
61760;PMS5003;47664;51.660;-0.100;2023-02-04T13:15:00;15;10;
61760;PMS5003;47664;51.660;-0.100;2023-02-04T13:17:33;13;12;
61760;PMS5003;47664;51.660;-0.100;2023-02-04T13:20:05;4;4;
61760;PMS5003;47664;51.660;-0.100;2023-02-04T13:22:38;7;6;
61760;PMS5003;47664;51.660;-0.100;2023-02-04T13:25:11;4;4;
61760;PMS5003;47664;51.660;-0.100;2023-02-04T13:27:43;4;4;
61760;PMS5003;47664;51.660;-0.100;2023-02-04T13:30:15;3;3;
61760;PMS5003;47664;51.660;-0.100;2023-02-04T13:32:48;6;6;
61760;PMS5003;47664;51.660;-0.100;2023-02-04T13:35:20;3;3;
61760;PMS5003;47664;51.660;-0.100;2023-02-04T13:37:52;1;1;
61760;PMS5003;47664;51.660;-0.100;2023-02-04T13:40:24;2;1;
61760;PMS5003;47664;51.660;-0.100;2023-02-04T13:42:56;3;3;
61760;PMS5003;47664;51.660;-0.100;2023-02-04T13:45:29;2;2;
61760;PMS5003;47664;51.660;-0.100;2023-02-04T13:48:01;0;0;
61760;PMS5003;47664;51.660;-0.100;2023-02-04T13:50:33;1;1;
61760;PMS5003;47664;51.660;-0.100;2023-02-04T13:53:05;2;2;
61760;PMS5003;47664;51.660;-0.100;2023-02-04T13:55:37;1;1;
61760;PMS5003;47664;51.660;-0.100;2023-02-04T13:58:09;2;2;
61760;PMS5003;47664;51.660;-0.100;2023-02-04T14:00:41;4;1;
61760;PMS5003;47664;51.660;-0.100;2023-02-04T14:03:14;4;1;
61760;PMS5003;47664;51.660;-0.100;2023-02-04T14:05:46;3;3;
61760;PMS5003;47664;51.660;-0.100;2023-02-04T14:08:19;5;2;
61760;PMS5003;47664;51.660;-0.100;2023-02-04T14:10:51;2;2;
61760;PMS5003;47664;51.660;-0.100;2023-02-04T14:13:28;3;2;
61760;PMS5003;47664;51.660;-0.100;2023-02-04T14:15:55;3;1;
61760;PMS5003;47664;51.660;-0.100;2023-02-04T14:18:27;1;0;
61760;PMS5003;47664;51.660;-0.100;2023-02-04T14:21:00;1;1;
61760;PMS5003;47664;51.660;-0.100;2023-02-04T14:23:32;3;3;
61760;PMS5003;47664;51.660;-0.100;2023-02-04T14:26:04;2;0;
61760;PMS5003;47664;51.660;-0.100;2023-02-04T14:28:36;2;0;
61760;PMS5003;47664;51.660;-0.100;2023-02-04T14:31:08;0;0;
61760;PMS5003;47664;51.660;-0.100;2023-02-04T14:33:40;3;1;
61760;PMS5003;47664;51.660;-0.100;2023-02-04T14:36:13;3;1;
61760;PMS5003;47664;51.660;-0.100;2023-02-04T14:38:45;1;1;
61760;PMS5003;47664;51.660;-0.100;2023-02-04T14:41:17;1;1;
61760;PMS5003;47664;51.660;-0.100;2023-02-04T14:43:49;2;2;
61760;PMS5003;47664;51.660;-0.100;2023-02-04T14:46:21;1;1;
61760;PMS5003;47664;51.660;-0.100;2023-02-04T14:48:53;1;1;
61760;PMS5003;47664;51.660;-0.100;2023-02-04T14:51:25;5;2;
61760;PMS5003;47664;51.660;-0.100;2023-02-04T14:53:57;3;2;
61760;PMS5003;47664;51.660;-0.100;2023-02-04T14:56:30;5;2;
61760;PMS5003;47664;51.660;-0.100;2023-02-04T14:59:02;6;6;
61760;PMS5003;47664;51.660;-0.100;2023-02-04T15:01:34;5;2;
61760;PMS5003;47664;51.660;-0.100;2023-02-04T15:04:06;1;1;
61760;PMS5003;47664;51.660;-0.100;2023-02-04T15:06:39;4;2;
61760;PMS5003;47664;51.660;-0.100;2023-02-04T15:09:10;5;2;
61760;PMS5003;47664;51.660;-0.100;2023-02-04T15:11:43;3;1;
61760;PMS5003;47664;51.660;-0.100;2023-02-04T15:14:15;2;2;
61760;PMS5003;47664;51.660;-0.100;2023-02-04T15:16:47;3;3;
61760;PMS5003;47664;51.660;-0.100;2023-02-04T15:19:19;5;2;
61760;PMS5003;47664;51.660;-0.100;2023-02-04T15:21:51;5;4;
61760;PMS5003;47664;51.660;-0.100;2023-02-04T15:24:23;5;4;
61760;PMS5003;47664;51.660;-0.100;2023-02-04T15:26:56;8;3;
61760;PMS5003;47664;51.660;-0.100;2023-02-04T15:29:28;5;2;
61760;PMS5003;47664;51.660;-0.100;2023-02-04T15:32:00;5;3;
61760;PMS5003;47664;51.660;-0.100;2023-02-04T15:34:32;2;2;
61760;PMS5003;47664;51.660;-0.100;2023-02-04T15:37:04;2;2;
61760;PMS5003;47664;51.660;-0.100;2023-02-04T15:39:37;8;6;
61760;PMS5003;47664;51.660;-0.100;2023-02-04T15:42:09;2;2;
61760;PMS5003;47664;51.660;-0.100;2023-02-04T15:44:41;2;2;
61760;PMS5003;47664;51.660;-0.100;2023-02-04T15:47:14;2;0;
61760;PMS5003;47664;51.660;-0.100;2023-02-04T15:49:46;2;2;
61760;PMS5003;47664;51.660;-0.100;2023-02-04T15:52:19;2;2;
61760;PMS5003;47664;51.660;-0.100;2023-02-04T15:54:51;4;1;
61760;PMS5003;47664;51.660;-0.100;2023-02-04T15:57:23;2;2;
61760;PMS5003;47664;51.660;-0.100;2023-02-04T15:59:55;3;3;
61760;PMS5003;47664;51.660;-0.100;2023-02-04T16:02:27;1;1;
61760;PMS5003;47664;51.660;-0.100;2023-02-04T16:05:00;1;1;
61760;PMS5003;47664;51.660;-0.100;2023-02-04T16:07:32;2;2;
61760;PMS5003;47664;51.660;-0.100;2023-02-04T16:10:04;1;1;
61760;PMS5003;47664;51.660;-0.100;2023-02-04T16:12:37;1;1;
61760;PMS5003;47664;51.660;-0.100;2023-02-04T16:15:09;1;1;
61760;PMS5003;47664;51.660;-0.100;2023-02-04T16:17:42;5;4;
61760;PMS5003;47664;51.660;-0.100;2023-02-04T16:20:14;4;2;
61760;PMS5003;47664;51.660;-0.100;2023-02-04T16:22:47;4;2;
61760;PMS5003;47664;51.660;-0.100;2023-02-04T16:25:18;2;2;
61760;PMS5003;47664;51.660;-0.100;2023-02-04T16:27:50;3;3;
61760;PMS5003;47664;51.660;-0.100;2023-02-04T16:30:23;4;4;
61760;PMS5003;47664;51.660;-0.100;2023-02-04T16:32:54;8;5;
61760;PMS5003;47664;51.660;-0.100;2023-02-04T16:35:27;5;5;
61760;PMS5003;47664;51.660;-0.100;2023-02-04T16:38:20;4;3;
61760;PMS5003;47664;51.660;-0.100;2023-02-04T16:40:53;8;2;
61760;PMS5003;47664;51.660;-0.100;2023-02-04T16:43:25;4;4;
61760;PMS5003;47664;51.660;-0.100;2023-02-04T16:45:57;2;2;
61760;PMS5003;47664;51.660;-0.100;2023-02-04T16:48:30;4;4;
61760;PMS5003;47664;51.660;-0.100;2023-02-04T16:51:02;5;2;
61760;PMS5003;47664;51.660;-0.100;2023-02-04T16:53:34;6;4;
61760;PMS5003;47664;51.660;-0.100;2023-02-04T16:56:06;4;4;
61760;PMS5003;47664;51.660;-0.100;2023-02-04T16:58:38;3;2;